Time;durP1;ratioP1;P1;durP2;ratioP2;P2;SDS_P1;SDS_P2;PMS_P1;PMS_P2;Temp;Humidity;BMP_temperature;BMP_pressure;BME280_temperature;BME280_humidity;BME280_pressure;Samples;Min_cycle;Max_cycle;Signal;HPM_P1;HPM_P2
2023/07/31 00:01:04;;;;;;;3.65;2.58;;;;;;;22.09;55.71;93567.25;5066510;28;20032;-78
2023/07/31 00:03:30;;;;;;;5.10;2.67;;;;;;;22.03;57.80;93568.81;5067051;28;20027;-76
2023/07/31 00:05:55;;;;;;;3.22;2.83;;;;;;;22.01;56.88;93560.28;5070561;28;20491;-76
2023/07/31 00:08:21;;;;;;;5.90;2.92;;;;;;;22.01;57.13;93571.13;5070335;28;20115;-77
2023/07/31 00:10:46;;;;;;;2.80;2.60;;;;;;;22.04;57.29;93577.72;5063973;28;20043;-77
2023/07/31 00:13:12;;;;;;;3.20;2.50;;;;;;;21.71;57.37;93563.44;5067856;28;20050;-77
2023/07/31 00:15:37;;;;;;;3.33;3.03;;;;;;;21.72;57.19;93561.50;5067461;28;20021;-76
2023/07/31 00:18:02;;;;;;;2.92;2.67;;;;;;;21.24;56.98;93575.44;5070320;28;20044;-75
2023/07/31 00:20:28;;;;;;;4.18;2.65;;;;;;;21.01;57.64;93559.59;5069958;28;20105;-76
2023/07/31 00:22:53;;;;;;;3.20;2.65;;;;;;;21.09;57.92;93554.94;5068593;28;20031;-76
2023/07/31 00:25:21;;;;;;;6.00;3.53;;;;;;;21.05;58.44;93548.78;5071060;28;20072;-76
2023/07/31 00:27:46;;;;;;;3.25;2.95;;;;;;;21.15;58.20;93558.81;5069601;28;20658;-77
2023/07/31 00:30:11;;;;;;;4.35;3.17;;;;;;;21.24;57.98;93545.69;5068291;28;20036;-78
2023/07/31 00:32:37;;;;;;;4.38;3.30;;;;;;;21.33;57.69;93537.19;5069253;28;20349;-76
2023/07/31 00:35:03;;;;;;;4.28;3.25;;;;;;;21.37;57.74;93529.81;5068779;28;20040;-77
2023/07/31 00:37:28;;;;;;;3.70;2.92;;;;;;;21.35;56.78;93530.22;5072244;28;20619;-75
2023/07/31 00:39:54;;;;;;;3.78;3.38;;;;;;;21.43;56.89;93531.00;5070879;28;20036;-77
2023/07/31 00:42:19;;;;;;;4.03;3.60;;;;;;;21.16;58.19;93524.44;5071469;28;20196;-77
2023/07/31 00:44:45;;;;;;;3.63;3.33;;;;;;;21.19;57.94;93535.25;5070080;28;20451;-76
2023/07/31 00:47:10;;;;;;;3.97;3.58;;;;;;;21.18;58.32;93525.59;5075562;28;20039;-76
2023/07/31 00:49:36;;;;;;;4.15;3.78;;;;;;;21.11;58.46;93531.00;5070772;28;20029;-76
2023/07/31 00:52:02;;;;;;;5.10;4.60;;;;;;;20.82;59.41;93526.72;5068599;28;20024;-77
2023/07/31 00:54:27;;;;;;;5.55;5.05;;;;;;;20.59;60.97;93554.84;5068307;28;20107;-76
2023/07/31 00:56:54;;;;;;;6.10;5.55;;;;;;;20.69;60.43;93547.91;5069678;28;20024;-76
2023/07/31 00:59:20;;;;;;;7.28;6.57;;;;;;;20.30;61.56;93528.13;5069259;28;20123;-76
2023/07/31 01:01:46;;;;;;;8.52;7.22;;;;;;;20.29;62.54;93532.75;5067964;28;20539;-77
2023/07/31 01:04:13;;;;;;;8.95;8.05;;;;;;;20.22;62.75;93532.72;5069243;28;20104;-75
2023/07/31 01:07:12;;;;;;;9.35;8.52;;;;;;;20.21;62.44;93523.09;5067764;28;20032;-77
2023/07/31 01:09:47;;;;;;;9.43;8.52;;;;;;;20.27;62.67;93532.38;5062049;28;20641;-76
2023/07/31 01:12:16;;;;;;;9.63;8.63;;;;;;;20.05;64.06;93533.38;5068678;28;20700;-75
2023/07/31 01:14:51;;;;;;;12.82;11.05;;;;;;;19.73;64.93;93531.31;5070846;28;20460;-75
2023/07/31 01:17:16;;;;;;;13.63;12.05;;;;;;;19.80;65.20;93524.44;5074588;28;20552;-76
2023/07/31 01:19:42;;;;;;;17.95;14.30;;;;;;;19.66;65.29;93504.28;5069215;28;20187;-78
2023/07/31 01:22:45;;;;;;;15.88;14.32;;;;;;;19.53;66.11;93521.97;5068014;28;20060;-76
2023/07/31 01:25:26;;;;;;;16.83;15.15;;;;;;;19.71;65.82;93522.03;5067816;28;20019;-77
2023/07/31 01:28:01;;;;;;;16.85;15.02;;;;;;;19.54;65.66;93518.13;5075231;28;20959;-75
2023/07/31 01:30:35;;;;;;;18.08;16.23;;;;;;;19.65;65.90;93529.72;5067806;28;20028;-77
2023/07/31 01:33:06;;;;;;;18.85;16.85;;;;;;;19.28;67.25;93510.19;5069633;28;20035;-77
2023/07/31 01:35:34;;;;;;;20.85;18.35;;;;;;;19.26;67.62;93509.81;5067494;28;20031;-75
2023/07/31 01:38:00;;;;;;;22.30;19.52;;;;;;;19.27;67.74;93522.13;5067414;28;20371;-75
2023/07/31 01:40:25;;;;;;;21.92;19.73;;;;;;;19.20;68.41;93524.78;5067829;28;20049;-76
2023/07/31 01:42:51;;;;;;;21.92;19.73;;;;;;;19.25;68.08;93519.03;5063438;28;20068;-75
2023/07/31 01:45:16;;;;;;;24.17;21.35;;;;;;;19.34;68.41;93530.28;5071023;28;20731;-77
2023/07/31 01:47:42;;;;;;;22.02;18.85;;;;;;;19.12;69.29;93529.34;5064754;28;20067;-76
2023/07/31 01:50:07;;;;;;;22.58;20.27;;;;;;;19.09;69.63;93516.63;5067686;28;20075;-75
2023/07/31 01:52:33;;;;;;;24.85;22.27;;;;;;;19.13;69.21;93508.53;5071132;28;20528;-77
2023/07/31 01:54:58;;;;;;;23.45;20.98;;;;;;;19.20;69.00;93527.47;5059853;28;20966;-75
2023/07/31 01:57:24;;;;;;;22.10;19.90;;;;;;;19.11;69.27;93518.94;5071804;28;20583;-75
2023/07/31 01:59:49;;;;;;;24.73;21.40;;;;;;;19.22;68.96;93517.06;5069600;28;20055;-76
2023/07/31 02:02:16;;;;;;;22.23;20.00;;;;;;;18.84;69.92;93504.84;5067774;28;21234;-76
2023/07/31 02:04:41;;;;;;;24.70;22.05;;;;;;;19.18;69.19;93517.06;5067735;28;20044;-75
2023/07/31 02:07:06;;;;;;;23.25;20.80;;;;;;;19.02;69.17;93491.53;5068496;28;20498;-76
2023/07/31 02:09:32;;;;;;;23.98;21.48;;;;;;;19.49;68.31;93531.19;5069058;28;20386;-77
2023/07/31 02:11:57;;;;;;;23.65;21.15;;;;;;;19.49;68.28;93531.94;5070052;28;20106;-76
2023/07/31 02:14:23;;;;;;;24.75;22.15;;;;;;;19.43;68.17;93516.47;5069026;28;20032;-76
2023/07/31 02:16:48;;;;;;;23.98;20.85;;;;;;;19.51;67.88;93528.84;5065617;28;20033;-79
2023/07/31 02:19:13;;;;;;;23.00;20.65;;;;;;;19.47;67.93;93509.97;5072018;28;20783;-77
2023/07/31 02:21:39;;;;;;;24.02;21.52;;;;;;;19.72;67.51;93534.38;5066501;28;20059;-76
2023/07/31 02:24:04;;;;;;;22.67;20.45;;;;;;;19.62;67.97;93533.19;5065797;28;20043;-75
2023/07/31 02:26:30;;;;;;;22.98;20.58;;;;;;;19.69;67.58;93521.66;5074719;28;20501;-78
2023/07/31 02:28:55;;;;;;;21.90;19.80;;;;;;;19.77;67.06;93527.88;5068849;28;20150;-76
2023/07/31 02:31:20;;;;;;;22.80;19.83;;;;;;;19.72;66.98;93529.00;5068669;28;20040;-75
2023/07/31 02:33:46;;;;;;;25.15;21.67;;;;;;;19.65;67.26;93535.13;5067154;28;20030;-77
2023/07/31 02:36:11;;;;;;;26.55;20.95;;;;;;;19.72;66.72;93535.16;5068130;28;20512;-78
2023/07/31 02:38:36;;;;;;;22.92;20.38;;;;;;;19.69;66.61;93519.75;5070388;28;20043;-76
2023/07/31 02:41:02;;;;;;;22.95;20.52;;;;;;;19.49;67.17;93518.47;5070428;28;20039;-75
2023/07/31 02:43:27;;;;;;;22.77;20.42;;;;;;;19.63;66.64;93532.03;5067904;28;20471;-77
2023/07/31 02:45:53;;;;;;;23.15;20.67;;;;;;;19.62;66.63;93535.09;5067437;28;20020;-77
2023/07/31 02:48:18;;;;;;;24.88;22.17;;;;;;;19.50;66.79;93533.50;5066652;28;20490;-77
2023/07/31 02:50:45;;;;;;;24.20;21.60;;;;;;;19.51;67.14;93539.66;5067588;28;20412;-75
2023/07/31 02:53:10;;;;;;;24.50;21.83;;;;;;;19.28;68.05;93553.34;5068360;28;20422;-77
2023/07/31 02:55:35;;;;;;;24.33;20.95;;;;;;;19.49;67.70;93553.53;5069896;28;20032;-77
2023/07/31 02:58:01;;;;;;;24.10;21.52;;;;;;;19.25;68.12;93568.34;5066670;28;20612;-76
2023/07/31 03:00:26;;;;;;;24.67;22.08;;;;;;;19.17;68.59;93568.66;5067708;28;20028;-76
2023/07/31 03:02:52;;;;;;;25.60;21.67;;;;;;;19.09;68.77;93550.88;5068145;28;20441;-77
2023/07/31 03:05:17;;;;;;;24.08;21.58;;;;;;;19.24;68.47;93561.41;5065871;28;20437;-76
2023/07/31 03:07:42;;;;;;;23.50;21.00;;;;;;;19.25;68.48;93559.47;5068941;28;20037;-76
2023/07/31 03:10:08;;;;;;;23.55;21.13;;;;;;;19.28;68.66;93567.59;5068504;28;20137;-77
2023/07/31 03:12:34;;;;;;;25.45;21.45;;;;;;;19.32;68.16;93551.44;5067495;28;20049;-77
2023/07/31 03:14:59;;;;;;;23.77;21.17;;;;;;;19.29;68.48;93560.28;5067550;28;20074;-78
2023/07/31 03:17:24;;;;;;;22.92;20.40;;;;;;;19.47;67.91;93566.59;5066000;28;20075;-75
2023/07/31 03:19:50;;;;;;;21.92;19.63;;;;;;;19.48;66.96;93551.97;5066419;28;20668;-78
2023/07/31 03:22:15;;;;;;;25.00;21.25;;;;;;;19.61;66.88;93569.41;5071168;28;20177;-76
2023/07/31 03:24:40;;;;;;;24.85;22.02;;;;;;;19.64;66.45;93567.88;5067456;28;20016;-75
2023/07/31 03:27:06;;;;;;;23.05;20.65;;;;;;;19.73;66.08;93561.00;5069316;28;20029;-77
2023/07/31 03:29:31;;;;;;;26.08;22.48;;;;;;;20.03;65.75;93578.91;5065625;28;20036;-76
2023/07/31 03:31:57;;;;;;;23.75;21.05;;;;;;;20.02;65.33;93580.06;5072267;28;20044;-75
2023/07/31 03:34:22;;;;;;;25.63;21.65;;;;;;;20.02;64.97;93563.84;5067769;28;20033;-77
2023/07/31 03:36:47;;;;;;;25.33;22.40;;;;;;;20.18;64.63;93583.25;5068862;28;20070;-77
2023/07/31 03:39:13;;;;;;;24.30;20.73;;;;;;;20.17;64.23;93582.47;5067118;28;20048;-76
2023/07/31 03:41:38;;;;;;;24.73;21.80;;;;;;;20.08;64.73;93589.34;5072149;28;20032;-76
2023/07/31 03:44:04;;;;;;;25.88;22.40;;;;;;;20.06;64.56;93572.75;5072164;28;20462;-76
2023/07/31 03:46:29;;;;;;;24.98;21.35;;;;;;;20.27;64.04;93591.78;5070025;28;20036;-78
2023/07/31 03:48:54;;;;;;;25.50;22.77;;;;;;;20.27;63.79;93593.69;5072121;28;20474;-75
2023/07/31 03:51:20;;;;;;;28.25;23.77;;;;;;;20.28;63.27;93587.16;5073454;28;20082;-76
2023/07/31 03:53:45;;;;;;;23.48;20.98;;;;;;;20.32;63.57;93596.81;5069190;28;20040;-77
2023/07/31 03:56:11;;;;;;;25.50;22.23;;;;;;;20.39;63.59;93604.16;5070324;28;20506;-78
2023/07/31 03:58:36;;;;;;;25.40;22.30;;;;;;;20.26;63.22;93584.81;5070549;28;20025;-76
2023/07/31 04:01:02;;;;;;;24.42;21.77;;;;;;;20.34;63.30;93599.88;5069682;28;20685;-76
2023/07/31 04:03:28;;;;;;;27.35;22.17;;;;;;;20.09;63.96;93599.00;5070392;28;20024;-75
2023/07/31 04:05:55;;;;;;;25.55;21.90;;;;;;;20.17;64.27;93597.91;5072060;28;20461;-76
2023/07/31 04:08:21;;;;;;;25.80;22.10;;;;;;;20.13;64.06;93597.84;5070601;28;20070;-75
2023/07/31 04:10:47;;;;;;;24.55;21.85;;;;;;;20.06;64.14;93597.81;5071597;28;20119;-76
2023/07/31 04:13:12;;;;;;;26.52;21.48;;;;;;;20.24;63.57;93611.41;5069571;28;20513;-76
2023/07/31 04:15:38;;;;;;;23.63;21.13;;;;;;;20.27;63.30;93604.50;5070762;28;20385;-76
2023/07/31 04:18:04;;;;;;;24.42;20.95;;;;;;;20.21;63.19;93601.38;5068336;28;20028;-76
2023/07/31 04:20:30;;;;;;;29.30;21.92;;;;;;;20.27;63.12;93607.97;5068968;28;20043;-78
2023/07/31 04:22:55;;;;;;;25.30;21.60;;;;;;;20.28;63.01;93604.13;5070171;28;20040;-78
2023/07/31 04:25:21;;;;;;;22.83;19.95;;;;;;;20.03;63.79;93605.91;5071880;28;20040;-78
2023/07/31 04:27:47;;;;;;;26.48;19.92;;;;;;;20.11;63.57;93618.28;5069977;28;20554;-76
2023/07/31 04:30:12;;;;;;;24.90;20.95;;;;;;;20.04;63.14;93613.59;5066140;28;20082;-77
2023/07/31 04:32:38;;;;;;;24.77;21.08;;;;;;;19.93;63.85;93614.69;5070378;28;20040;-76
2023/07/31 04:35:03;;;;;;;23.35;19.40;;;;;;;19.90;63.78;93601.94;5070548;28;20089;-76
2023/07/31 04:37:29;;;;;;;19.63;17.58;;;;;;;19.74;63.82;93608.44;5069486;28;20474;-79
2023/07/31 04:39:54;;;;;;;21.73;18.85;;;;;;;19.93;63.94;93615.47;5070665;28;20036;-77
2023/07/31 04:42:20;;;;;;;20.05;17.90;;;;;;;19.97;63.03;93610.09;5069461;28;20031;-77
2023/07/31 04:44:45;;;;;;;19.90;17.77;;;;;;;19.84;63.45;93601.56;5076377;28;20029;-76
2023/07/31 04:47:10;;;;;;;20.67;18.15;;;;;;;19.77;63.17;93598.00;5068946;28;20028;-78
2023/07/31 04:49:36;;;;;;;21.20;18.83;;;;;;;19.79;63.52;93593.03;5070503;28;20039;-78
2023/07/31 04:52:02;;;;;;;24.20;19.48;;;;;;;19.88;63.81;93601.56;5067389;28;20034;-76
2023/07/31 04:54:27;;;;;;;21.73;19.27;;;;;;;20.05;62.79;93606.28;5071469;28;20020;-76
2023/07/31 04:56:52;;;;;;;20.15;17.67;;;;;;;19.94;63.00;93613.56;5069642;28;20047;-76
2023/07/31 04:59:18;;;;;;;19.38;16.75;;;;;;;19.94;63.30;93613.56;5076313;28;20044;-77
2023/07/31 05:01:45;;;;;;;20.13;17.90;;;;;;;19.73;63.89;93596.09;5066995;28;20415;-77
2023/07/31 05:04:13;;;;;;;20.33;17.92;;;;;;;19.84;63.68;93592.69;5068809;28;20028;-79
2023/07/31 05:06:38;;;;;;;20.42;18.20;;;;;;;20.05;64.03;93600.88;5086788;27;20020;-77
2023/07/31 05:09:04;;;;;;;19.63;17.33;;;;;;;19.95;62.98;93602.38;5068304;28;20033;-77
2023/07/31 05:11:29;;;;;;;18.92;16.77;;;;;;;19.93;63.28;93606.59;5067830;28;21193;-79
2023/07/31 05:13:54;;;;;;;19.55;17.58;;;;;;;20.03;64.11;93597.78;5067460;28;20506;-76
2023/07/31 05:16:20;;;;;;;15.90;14.30;;;;;;;19.87;62.74;93583.81;5071425;28;20055;-76
2023/07/31 05:18:45;;;;;;;15.40;13.57;;;;;;;19.90;62.96;93601.94;5069583;28;20467;-78
2023/07/31 05:21:10;;;;;;;16.48;14.80;;;;;;;19.74;63.08;93604.94;5067284;28;20059;-78
2023/07/31 05:23:36;;;;;;;18.13;15.15;;;;;;;19.80;63.63;93602.69;5071818;28;20589;-76
2023/07/31 05:26:05;;;;;;;17.42;14.93;;;;;;;19.99;63.49;93607.81;5072885;28;20637;-76
2023/07/31 05:28:31;;;;;;;15.73;14.02;;;;;;;20.11;62.64;93588.56;5074149;28;20043;-78
2023/07/31 05:31:00;;;;;;;15.38;13.68;;;;;;;20.01;62.45;93594.69;5067649;28;20016;-76
2023/07/31 05:33:26;;;;;;;16.70;14.07;;;;;;;19.95;62.53;93591.56;5068478;28;20028;-77
2023/07/31 05:35:52;;;;;;;15.07;13.48;;;;;;;20.14;62.95;93612.13;5063642;28;20043;-76
2023/07/31 05:38:18;;;;;;;15.23;13.63;;;;;;;20.25;62.35;93604.88;5063511;28;20075;-76
2023/07/31 05:40:43;;;;;;;13.55;12.07;;;;;;;20.10;62.19;93597.81;5059273;28;20033;-76
2023/07/31 05:43:09;;;;;;;13.25;11.88;;;;;;;20.13;62.83;93610.59;5060493;28;20648;-77
2023/07/31 05:45:35;;;;;;;13.88;11.95;;;;;;;20.07;62.72;93601.28;5063105;28;20487;-76
2023/07/31 05:48:00;;;;;;;13.98;12.60;;;;;;;20.22;62.67;93602.16;5061722;28;20043;-76
2023/07/31 05:50:26;;;;;;;14.75;13.00;;;;;;;20.31;62.57;93603.38;5061199;28;20096;-77
2023/07/31 05:52:51;;;;;;;13.43;11.65;;;;;;;20.29;61.67;93589.44;5059967;28;20036;-77
2023/07/31 05:55:17;;;;;;;12.50;10.82;;;;;;;20.33;60.52;93592.97;5066215;28;20051;-76
2023/07/31 05:57:42;;;;;;;12.02;10.73;;;;;;;20.45;60.81;93608.81;5058242;28;20478;-76
2023/07/31 06:00:08;;;;;;;11.57;10.30;;;;;;;20.38;59.76;93602.63;5059060;28;20566;-77
2023/07/31 06:02:36;;;;;;;9.80;8.80;;;;;;;20.46;58.70;93609.59;5064124;28;20121;-77
2023/07/31 06:05:03;;;;;;;10.65;9.27;;;;;;;20.46;59.31;93615.78;5071376;28;20024;-77
2023/07/31 06:07:29;;;;;;;10.70;9.60;;;;;;;20.49;59.60;93608.81;5058099;28;20040;-76
2023/07/31 06:09:55;;;;;;;10.80;9.70;;;;;;;20.62;58.97;93610.06;5078605;27;20040;-77
2023/07/31 06:12:20;;;;;;;10.40;8.70;;;;;;;20.42;59.26;93585.28;5073934;28;20016;-76
2023/07/31 06:14:46;;;;;;;10.85;8.93;;;;;;;20.53;59.83;93612.34;5066049;28;20506;-78
2023/07/31 06:17:11;;;;;;;11.73;8.77;;;;;;;20.49;58.50;93619.63;5065780;27;20933;-76
2023/07/31 06:19:37;;;;;;;7.32;6.63;;;;;;;20.51;57.18;93620.81;5065995;28;20050;-76
2023/07/31 06:22:02;;;;;;;6.70;6.03;;;;;;;20.57;57.27;93616.59;5066235;28;20028;-76
2023/07/31 06:24:28;;;;;;;7.82;6.88;;;;;;;20.53;56.81;93621.19;5064877;28;20035;-77
2023/07/31 06:26:53;;;;;;;7.70;6.90;;;;;;;20.58;58.08;93612.72;5068831;28;20058;-78
2023/07/31 06:29:19;;;;;;;7.25;6.18;;;;;;;20.54;56.42;93616.56;5064681;28;20581;-78
2023/07/31 06:31:44;;;;;;;6.47;5.88;;;;;;;20.38;56.29;93613.44;5067365;28;20913;-76
2023/07/31 06:34:10;;;;;;;5.28;4.78;;;;;;;20.15;55.44;93602.88;5054065;28;20058;-76
2023/07/31 06:36:35;;;;;;;8.13;4.60;;;;;;;19.96;55.33;93581.56;5051190;28;20033;-78
2023/07/31 06:39:00;;;;;;;5.68;4.22;;;;;;;20.24;54.58;93621.47;5053572;28;20532;-75
2023/07/31 06:41:26;;;;;;;5.85;4.18;;;;;;;20.36;55.84;93611.09;5052922;28;20070;-77
2023/07/31 06:43:51;;;;;;;4.80;4.40;;;;;;;20.53;55.83;93602.28;5054794;28;20122;-77
2023/07/31 06:46:17;;;;;;;5.60;4.22;;;;;;;20.68;54.72;93616.59;5064642;28;20031;-76
2023/07/31 06:48:42;;;;;;;4.78;4.38;;;;;;;20.42;54.07;93614.22;5066097;28;20020;-76
2023/07/31 06:51:07;;;;;;;5.63;4.00;;;;;;;20.48;55.00;93624.25;5059273;28;20040;-78
2023/07/31 06:53:33;;;;;;;5.38;3.95;;;;;;;20.44;55.12;93617.28;5059703;28;20071;-77
2023/07/31 06:55:58;;;;;;;4.65;4.25;;;;;;;20.38;55.52;93619.59;5059639;27;20597;-78
2023/07/31 06:58:24;;;;;;;5.72;3.85;;;;;;;20.22;56.04;93605.63;5059337;28;20035;-78
2023/07/31 07:00:50;;;;;;;4.32;3.85;;;;;;;20.37;55.52;93620.75;5057804;28;20039;-77
2023/07/31 07:03:18;;;;;;;4.70;4.30;;;;;;;20.21;56.79;93625.69;5054154;28;20123;-76
2023/07/31 07:05:43;;;;;;;5.20;3.78;;;;;;;20.12;56.66;93595.53;5059208;28;20032;-78
2023/07/31 07:08:09;;;;;;;4.07;3.15;;;;;;;20.16;55.74;93612.50;5058549;28;20605;-76
2023/07/31 07:10:35;;;;;;;7.82;3.30;;;;;;;20.33;55.38;93611.88;5053935;28;20499;-77
2023/07/31 07:13:00;;;;;;;4.28;3.05;;;;;;;20.48;55.59;93601.91;5059120;28;20038;-76
2023/07/31 07:15:25;;;;;;;3.70;3.10;;;;;;;20.52;54.62;93613.47;5053840;28;20043;-77
2023/07/31 07:17:51;;;;;;;3.00;2.50;;;;;;;20.34;53.90;93616.09;5056426;28;20036;-77
2023/07/31 07:20:16;;;;;;;4.95;2.60;;;;;;;20.32;53.56;93621.13;5060139;28;20028;-76
2023/07/31 07:22:45;;;;;;;7.78;2.72;;;;;;;20.21;54.99;93614.09;5061193;28;20043;-76
2023/07/31 07:25:11;;;;;;;2.88;2.58;;;;;;;20.11;54.63;93620.97;5055883;28;20406;-76
2023/07/31 07:27:37;;;;;;;10.15;2.80;;;;;;;20.17;55.02;93622.19;5058708;28;20063;-76
2023/07/31 07:30:05;;;;;;;2.97;2.30;;;;;;;20.27;54.04;93607.97;5057847;28;20151;-76
2023/07/31 07:32:31;;;;;;;3.75;2.75;;;;;;;20.14;53.80;93595.94;5056709;28;20040;-76
2023/07/31 07:34:56;;;;;;;2.90;2.60;;;;;;;20.09;54.68;93607.84;5057197;28;20058;-76
2023/07/31 07:37:27;;;;;;;3.75;2.63;;;;;;;20.07;54.31;93609.38;5054042;28;20134;-76
2023/07/31 07:39:52;;;;;;;2.60;2.35;;;;;;;20.22;54.95;93621.84;5053589;28;20025;-76
2023/07/31 07:42:18;;;;;;;2.75;2.35;;;;;;;20.34;53.61;93613.41;5058096;28;20043;-77
2023/07/31 07:44:43;;;;;;;5.45;2.63;;;;;;;20.30;53.90;93607.22;5060147;28;20086;-77
2023/07/31 07:47:10;;;;;;;3.25;2.95;;;;;;;20.37;53.78;93628.09;5057152;28;20329;-78
2023/07/31 07:49:36;;;;;;;3.40;2.50;;;;;;;20.27;54.24;93612.59;5057284;28;20047;-77
2023/07/31 07:52:02;;;;;;;4.10;3.10;;;;;;;20.47;53.89;93628.13;5055604;28;20032;-76
2023/07/31 07:54:28;;;;;;;5.35;2.85;;;;;;;20.45;53.74;93627.72;5059679;28;20050;-76
2023/07/31 07:56:53;;;;;;;4.38;2.70;;;;;;;20.48;53.83;93629.66;5056437;28;20035;-78
2023/07/31 07:59:18;;;;;;;4.47;3.05;;;;;;;20.59;54.77;93627.00;5059741;28;20064;-77
2023/07/31 08:01:44;;;;;;;2.85;1.92;;;;;;;20.66;53.42;93639.78;5056445;28;20513;-76
2023/07/31 08:04:09;;;;;;;5.45;3.05;;;;;;;20.72;53.85;93646.38;5056741;28;20028;-76
2023/07/31 08:06:35;;;;;;;2.58;2.20;;;;;;;20.58;54.52;93603.88;5056453;28;20025;-79
2023/07/31 08:09:05;;;;;;;3.33;2.33;;;;;;;20.82;53.23;93638.31;5058825;28;20024;-76
2023/07/31 08:11:30;;;;;;;2.78;2.58;;;;;;;20.73;52.56;93637.84;5055003;28;20051;-77
2023/07/31 08:13:56;;;;;;;3.28;2.75;;;;;;;20.78;52.26;93623.19;5055910;28;20033;-76
2023/07/31 08:16:21;;;;;;;5.45;2.70;;;;;;;20.93;53.07;93617.50;5055942;28;20044;-78
2023/07/31 08:18:48;;;;;;;4.82;2.75;;;;;;;21.00;52.27;93624.84;5056909;28;20013;-75
2023/07/31 08:21:14;;;;;;;4.70;2.83;;;;;;;20.97;51.82;93629.06;5059301;28;20036;-77
2023/07/31 08:23:41;;;;;;;3.63;2.45;;;;;;;20.94;51.01;93629.84;5054038;28;20043;-77
2023/07/31 08:26:06;;;;;;;2.75;2.30;;;;;;;21.01;52.20;93626.41;5055995;28;20029;-77
2023/07/31 08:28:32;;;;;;;2.50;2.28;;;;;;;20.96;51.30;93605.16;5060262;28;20050;-77
2023/07/31 08:30:58;;;;;;;3.35;2.22;;;;;;;21.22;50.64;93628.34;5050729;28;20032;-75
2023/07/31 08:33:23;;;;;;;2.92;2.22;;;;;;;21.24;50.39;93637.63;5063269;28;20035;-76
2023/07/31 08:35:48;;;;;;;3.42;2.78;;;;;;;21.39;50.55;93636.50;5059464;28;20044;-77
2023/07/31 08:38:14;;;;;;;3.85;2.10;;;;;;;21.45;49.98;93624.16;5063584;28;20637;-76
2023/07/31 08:40:40;;;;;;;4.10;2.17;;;;;;;21.50;49.16;93625.69;5062490;28;20040;-77
2023/07/31 08:43:05;;;;;;;2.72;2.17;;;;;;;21.61;50.49;93623.75;5059119;28;20123;-76
2023/07/31 08:45:32;;;;;;;2.83;2.15;;;;;;;21.81;49.13;93621.44;5061506;28;20086;-77
2023/07/31 08:47:59;;;;;;;2.63;2.22;;;;;;;22.09;48.56;93631.47;5062434;28;20090;-78
2023/07/31 08:50:25;;;;;;;2.22;1.92;;;;;;;22.09;47.63;93621.41;5062718;28;20028;-77
2023/07/31 08:52:52;;;;;;;2.85;2.47;;;;;;;22.08;47.24;93614.44;5064269;28;20581;-77
2023/07/31 08:55:23;;;;;;;5.13;2.55;;;;;;;22.03;47.79;93619.47;5060932;28;20399;-77
2023/07/31 08:57:50;;;;;;;3.55;2.45;;;;;;;22.06;47.70;93630.28;5059480;28;20495;-76
2023/07/31 09:00:15;;;;;;;25.83;3.00;;;;;;;22.03;47.33;93633.03;5060147;28;20033;-77
2023/07/31 09:03:00;;;;;;;2.30;2.10;;;;;;;22.06;47.24;93638.41;5062185;28;20485;-76
2023/07/31 09:05:27;;;;;;;1.92;1.70;;;;;;;22.17;47.13;93628.34;5062313;28;20482;-78
2023/07/31 09:07:54;;;;;;;4.45;2.10;;;;;;;22.21;46.39;93615.59;5060520;28;20307;-77
2023/07/31 09:10:20;;;;;;;5.20;2.60;;;;;;;22.17;46.07;93622.94;5059269;28;20694;-77
2023/07/31 09:12:46;;;;;;;2.63;2.05;;;;;;;22.06;47.24;93613.28;5059153;28;20046;-78
2023/07/31 09:15:11;;;;;;;2.30;2.10;;;;;;;22.14;46.82;93621.00;5064632;28;20043;-77
2023/07/31 09:17:37;;;;;;;2.42;2.10;;;;;;;22.12;46.60;93623.31;5059744;28;20451;-78
2023/07/31 09:20:20;;;;;;;2.17;1.95;;;;;;;22.23;46.96;93626.03;5060924;28;20187;-76
2023/07/31 09:22:47;;;;;;;3.72;2.38;;;;;;;22.23;46.80;93613.28;5060364;27;20570;-76
2023/07/31 09:25:18;;;;;;;2.38;2.15;;;;;;;22.33;45.65;93613.63;5062089;28;20085;-76
2023/07/31 09:27:50;;;;;;;2.83;2.33;;;;;;;22.41;46.52;93605.09;5060266;28;20020;-77
2023/07/31 09:30:17;;;;;;;4.38;2.50;;;;;;;22.39;46.70;93601.25;5061752;28;20625;-76
2023/07/31 09:32:44;;;;;;;3.78;2.55;;;;;;;22.43;46.29;93600.06;5059043;28;20036;-76
2023/07/31 09:35:29;;;;;;;2.92;2.65;;;;;;;22.48;46.52;93605.06;5062603;28;20268;-77
2023/07/31 09:37:59;;;;;;;4.63;2.45;;;;;;;22.64;46.14;93601.88;5074493;27;20512;-78
2023/07/31 09:40:27;;;;;;;4.15;2.60;;;;;;;22.45;45.87;93605.06;5060096;28;20043;-78
2023/07/31 09:42:53;;;;;;;3.78;2.90;;;;;;;22.54;46.17;93600.00;5074878;27;20358;-78
2023/07/31 09:45:19;;;;;;;5.80;2.25;;;;;;;22.55;45.87;93593.41;5055597;28;20036;-79
2023/07/31 09:47:48;;;;;;;4.35;2.38;;;;;;;22.68;45.83;93597.25;5054936;28;21249;-76
2023/07/31 09:50:15;;;;;;;3.05;2.45;;;;;;;22.77;46.49;93584.03;5058295;28;20520;-77
2023/07/31 09:52:40;;;;;;;2.67;2.20;;;;;;;22.81;45.87;93579.34;5059872;28;20032;-77
2023/07/31 09:55:06;;;;;;;13.52;3.20;;;;;;;22.73;45.54;93580.56;5059194;28;20024;-80
2023/07/31 09:57:33;;;;;;;3.30;2.22;;;;;;;22.69;45.32;93591.41;5060764;28;20432;-76
2023/07/31 09:59:58;;;;;;;2.85;2.28;;;;;;;22.71;45.21;93574.75;5054674;28;20044;-77
2023/07/31 10:02:25;;;;;;;2.72;2.13;;;;;;;22.80;46.07;93575.09;5058792;28;20515;-77
2023/07/31 10:04:54;;;;;;;4.45;2.40;;;;;;;22.99;45.80;93573.84;5059598;28;20666;-78
2023/07/31 10:07:25;;;;;;;2.20;2.00;;;;;;;23.20;44.33;93576.41;5061500;28;20044;-77
2023/07/31 10:09:53;;;;;;;4.63;2.35;;;;;;;23.14;44.82;93592.34;5061231;28;20532;-78
2023/07/31 10:12:22;;;;;;;2.50;1.83;;;;;;;23.02;44.09;93581.19;5058522;28;20052;-77
2023/07/31 10:14:47;;;;;;;14.00;2.35;;;;;;;22.91;44.17;93588.63;5058443;28;20522;-77
2023/07/31 10:17:14;;;;;;;5.15;2.00;;;;;;;22.99;45.07;93585.47;5059154;28;20033;-78
2023/07/31 10:19:42;;;;;;;4.20;2.45;;;;;;;23.11;44.92;93574.16;5058984;28;20175;-79
2023/07/31 10:22:08;;;;;;;2.55;2.08;;;;;;;23.22;43.63;93570.59;5048542;28;20220;-77
2023/07/31 10:24:35;;;;;;;4.00;1.95;;;;;;;23.15;43.55;93582.28;5061478;28;20111;-78
2023/07/31 10:27:02;;;;;;;2.63;2.03;;;;;;;23.17;42.96;93580.69;5056611;28;20036;-76
2023/07/31 10:29:29;;;;;;;3.92;1.80;;;;;;;23.20;42.85;93572.94;5057561;28;20063;-77
2023/07/31 10:31:57;;;;;;;6.28;2.35;;;;;;;23.23;43.42;93575.63;5051695;28;20358;-77
2023/07/31 10:34:23;;;;;;;2.05;1.75;;;;;;;23.27;41.98;93570.19;5056767;28;20075;-78
2023/07/31 10:36:49;;;;;;;3.90;1.70;;;;;;;23.10;41.45;93559.06;5040258;28;20455;-75
2023/07/31 10:39:38;;;;;;;2.20;1.48;;;;;;;23.01;42.55;93542.47;5036232;28;20418;-76
2023/07/31 10:42:19;;;;;;;4.28;2.00;;;;;;;23.26;42.52;93574.06;5034736;28;20063;-76
2023/07/31 10:44:46;;;;;;;4.20;1.90;;;;;;;23.24;41.97;93574.44;5038528;28;20041;-76
2023/07/31 10:47:15;;;;;;;2.10;1.60;;;;;;;23.21;41.21;93558.22;5048614;28;20475;-75
2023/07/31 10:49:44;;;;;;;2.25;1.60;;;;;;;23.36;41.89;93548.78;5057821;28;20118;-75
2023/07/31 10:52:13;;;;;;;1.90;1.55;;;;;;;23.34;41.18;93545.69;5050862;28;20142;-78
2023/07/31 10:54:42;;;;;;;3.33;2.08;;;;;;;23.43;41.52;93565.00;5038227;28;20025;-76
2023/07/31 10:57:21;;;;;;;2.42;1.92;;;;;;;23.48;40.95;93561.84;5037045;28;20028;-77
2023/07/31 10:59:48;;;;;;;1.95;1.75;;;;;;;23.38;40.78;93549.91;5037124;28;20107;-75
2023/07/31 11:02:29;;;;;;;2.53;1.55;;;;;;;23.39;40.23;93553.41;5052590;28;20114;-75
2023/07/31 11:05:09;;;;;;;1.98;1.70;;;;;;;23.25;39.88;93537.25;5049013;28;20033;-77
2023/07/31 11:07:50;;;;;;;2.33;1.50;;;;;;;23.30;40.32;93542.25;5046388;28;20574;-78
2023/07/31 11:10:18;;;;;;;3.25;1.30;;;;;;;23.44;39.67;93552.97;5062917;28;20044;-77
2023/07/31 11:12:45;;;;;;;1.60;1.20;;;;;;;23.41;40.15;93540.22;5038233;28;20056;-75
2023/07/31 11:15:11;;;;;;;1.73;1.33;;;;;;;23.58;39.16;93544.75;5035839;28;21067;-76
2023/07/31 11:17:39;;;;;;;1.60;1.20;;;;;;;23.58;39.50;93533.88;5050836;28;20032;-77
2023/07/31 11:20:07;;;;;;;1.85;1.35;;;;;;;23.68;39.35;93548.53;5057722;28;20498;-77
2023/07/31 11:22:34;;;;;;;3.08;1.30;;;;;;;23.62;38.56;93537.31;5052920;28;20451;-77
2023/07/31 11:24:59;;;;;;;1.75;1.40;;;;;;;23.82;38.81;93549.16;5030711;28;20032;-76